sensor_id;sensor_type;location;lat;lon;timestamp;temperature;humidity
82243;DHT22;71844;51.528;4.442;2024-03-08T00:02:17;4.90;73.00
82243;DHT22;71844;51.528;4.442;2024-03-08T00:04:46;4.90;73.20
82243;DHT22;71844;51.528;4.442;2024-03-08T00:07:13;4.80;73.00
82243;DHT22;71844;51.528;4.442;2024-03-08T00:09:40;4.80;72.80
82243;DHT22;71844;51.528;4.442;2024-03-08T00:12:07;4.80;72.90
82243;DHT22;71844;51.528;4.442;2024-03-08T00:14:35;4.80;73.00
82243;DHT22;71844;51.528;4.442;2024-03-08T00:17:01;4.80;73.20
82243;DHT22;71844;51.528;4.442;2024-03-08T00:19:30;4.70;72.90
82243;DHT22;71844;51.528;4.442;2024-03-08T00:21:57;4.70;73.00
82243;DHT22;71844;51.528;4.442;2024-03-08T00:24:24;4.70;73.00
82243;DHT22;71844;51.528;4.442;2024-03-08T00:26:51;4.70;73.00
82243;DHT22;71844;51.528;4.442;2024-03-08T00:29:21;4.60;73.00
82243;DHT22;71844;51.528;4.442;2024-03-08T00:31:49;4.60;73.10
82243;DHT22;71844;51.528;4.442;2024-03-08T00:34:15;4.60;73.20
82243;DHT22;71844;51.528;4.442;2024-03-08T00:36:42;4.60;73.10
82243;DHT22;71844;51.528;4.442;2024-03-08T00:39:10;4.60;72.90
82243;DHT22;71844;51.528;4.442;2024-03-08T00:41:38;4.50;72.90
82243;DHT22;71844;51.528;4.442;2024-03-08T00:44:05;4.50;72.90
82243;DHT22;71844;51.528;4.442;2024-03-08T00:46:32;4.50;72.90
82243;DHT22;71844;51.528;4.442;2024-03-08T00:49:00;4.50;72.80
82243;DHT22;71844;51.528;4.442;2024-03-08T00:51:28;4.50;72.90
82243;DHT22;71844;51.528;4.442;2024-03-08T00:53:55;4.50;72.70
82243;DHT22;71844;51.528;4.442;2024-03-08T00:56:22;4.50;72.60
82243;DHT22;71844;51.528;4.442;2024-03-08T00:58:49;4.40;72.70
82243;DHT22;71844;51.528;4.442;2024-03-08T01:01:15;4.40;72.60
82243;DHT22;71844;51.528;4.442;2024-03-08T01:03:43;4.40;72.70
82243;DHT22;71844;51.528;4.442;2024-03-08T01:06:10;4.40;72.50
82243;DHT22;71844;51.528;4.442;2024-03-08T01:08:38;4.40;72.60
82243;DHT22;71844;51.528;4.442;2024-03-08T01:11:08;4.30;72.60
82243;DHT22;71844;51.528;4.442;2024-03-08T01:13:35;4.30;72.40
82243;DHT22;71844;51.528;4.442;2024-03-08T01:16:03;4.30;72.60
82243;DHT22;71844;51.528;4.442;2024-03-08T01:18:30;4.30;72.50
82243;DHT22;71844;51.528;4.442;2024-03-08T01:20:57;4.30;72.40
82243;DHT22;71844;51.528;4.442;2024-03-08T01:23:24;4.30;72.30
82243;DHT22;71844;51.528;4.442;2024-03-08T01:25:51;4.20;72.30
82243;DHT22;71844;51.528;4.442;2024-03-08T01:28:24;4.20;72.30
82243;DHT22;71844;51.528;4.442;2024-03-08T01:30:51;4.20;72.40
82243;DHT22;71844;51.528;4.442;2024-03-08T01:33:26;4.10;72.50
82243;DHT22;71844;51.528;4.442;2024-03-08T01:35:53;4.10;72.40
82243;DHT22;71844;51.528;4.442;2024-03-08T01:38:21;4.10;72.50
82243;DHT22;71844;51.528;4.442;2024-03-08T01:40:51;4.10;72.30
82243;DHT22;71844;51.528;4.442;2024-03-08T01:43:24;4.10;72.30
82243;DHT22;71844;51.528;4.442;2024-03-08T01:45:52;4.00;72.30
82243;DHT22;71844;51.528;4.442;2024-03-08T01:48:20;4.00;72.20
82243;DHT22;71844;51.528;4.442;2024-03-08T01:50:51;4.00;72.10
82243;DHT22;71844;51.528;4.442;2024-03-08T01:53:19;4.00;72.10
82243;DHT22;71844;51.528;4.442;2024-03-08T01:55:47;4.00;72.20
82243;DHT22;71844;51.528;4.442;2024-03-08T01:58:15;4.00;72.20
82243;DHT22;71844;51.528;4.442;2024-03-08T02:03:39;4.00;71.90
82243;DHT22;71844;51.528;4.442;2024-03-08T02:06:06;3.90;72.00
82243;DHT22;71844;51.528;4.442;2024-03-08T02:08:37;3.90;71.90
82243;DHT22;71844;51.528;4.442;2024-03-08T02:11:05;3.90;72.00
82243;DHT22;71844;51.528;4.442;2024-03-08T02:13:32;3.90;72.10
82243;DHT22;71844;51.528;4.442;2024-03-08T02:16:00;3.80;71.90
82243;DHT22;71844;51.528;4.442;2024-03-08T02:18:28;3.80;71.90
82243;DHT22;71844;51.528;4.442;2024-03-08T02:20:57;3.80;71.80
82243;DHT22;71844;51.528;4.442;2024-03-08T02:23:25;3.80;71.80
82243;DHT22;71844;51.528;4.442;2024-03-08T02:25:54;3.80;71.80
82243;DHT22;71844;51.528;4.442;2024-03-08T02:28:21;3.80;71.70
82243;DHT22;71844;51.528;4.442;2024-03-08T02:30:48;3.70;71.70
82243;DHT22;71844;51.528;4.442;2024-03-08T02:33:16;3.70;71.80
82243;DHT22;71844;51.528;4.442;2024-03-08T02:35:44;3.70;71.80
82243;DHT22;71844;51.528;4.442;2024-03-08T02:38:15;3.70;71.70
82243;DHT22;71844;51.528;4.442;2024-03-08T02:40:44;3.70;71.70
82243;DHT22;71844;51.528;4.442;2024-03-08T02:43:11;3.60;71.70
82243;DHT22;71844;51.528;4.442;2024-03-08T02:45:38;3.60;71.70
82243;DHT22;71844;51.528;4.442;2024-03-08T02:48:05;3.60;71.70
82243;DHT22;71844;51.528;4.442;2024-03-08T02:50:35;3.60;71.70
82243;DHT22;71844;51.528;4.442;2024-03-08T02:53:06;3.60;71.70
82243;DHT22;71844;51.528;4.442;2024-03-08T02:55:34;3.50;71.60
82243;DHT22;71844;51.528;4.442;2024-03-08T02:58:04;3.50;71.70
82243;DHT22;71844;51.528;4.442;2024-03-08T03:00:31;3.50;71.70
82243;DHT22;71844;51.528;4.442;2024-03-08T03:02:59;3.50;71.60
82243;DHT22;71844;51.528;4.442;2024-03-08T03:05:30;3.50;71.70
82243;DHT22;71844;51.528;4.442;2024-03-08T03:07:57;3.40;71.60
82243;DHT22;71844;51.528;4.442;2024-03-08T03:10:25;3.40;71.70
82243;DHT22;71844;51.528;4.442;2024-03-08T03:12:52;3.40;71.60
82243;DHT22;71844;51.528;4.442;2024-03-08T03:15:19;3.40;71.60
82243;DHT22;71844;51.528;4.442;2024-03-08T03:17:47;3.40;71.70
82243;DHT22;71844;51.528;4.442;2024-03-08T03:20:15;3.40;71.70
82243;DHT22;71844;51.528;4.442;2024-03-08T03:22:49;3.40;71.50
82243;DHT22;71844;51.528;4.442;2024-03-08T03:25:20;3.30;71.60
82243;DHT22;71844;51.528;4.442;2024-03-08T03:27:52;3.30;71.60
82243;DHT22;71844;51.528;4.442;2024-03-08T03:30:24;3.30;71.50
82243;DHT22;71844;51.528;4.442;2024-03-08T03:32:53;3.20;71.50
82243;DHT22;71844;51.528;4.442;2024-03-08T03:35:22;3.20;71.60
82243;DHT22;71844;51.528;4.442;2024-03-08T03:37:49;3.20;71.60
82243;DHT22;71844;51.528;4.442;2024-03-08T03:40:34;3.20;71.50
82243;DHT22;71844;51.528;4.442;2024-03-08T03:43:01;3.20;71.60
82243;DHT22;71844;51.528;4.442;2024-03-08T03:45:29;3.20;71.50
82243;DHT22;71844;51.528;4.442;2024-03-08T03:48:02;3.20;71.50
82243;DHT22;71844;51.528;4.442;2024-03-08T03:50:29;3.10;71.60
82243;DHT22;71844;51.528;4.442;2024-03-08T03:52:57;3.10;71.40
82243;DHT22;71844;51.528;4.442;2024-03-08T03:55:24;3.10;71.50
82243;DHT22;71844;51.528;4.442;2024-03-08T03:57:51;3.10;71.60
82243;DHT22;71844;51.528;4.442;2024-03-08T04:00:19;3.10;71.50
82243;DHT22;71844;51.528;4.442;2024-03-08T04:02:46;3.10;71.50
82243;DHT22;71844;51.528;4.442;2024-03-08T04:05:16;3.10;71.40
82243;DHT22;71844;51.528;4.442;2024-03-08T04:07:43;3.00;71.40
82243;DHT22;71844;51.528;4.442;2024-03-08T04:10:11;3.00;71.40
82243;DHT22;71844;51.528;4.442;2024-03-08T04:12:38;3.00;71.30
82243;DHT22;71844;51.528;4.442;2024-03-08T04:15:05;3.00;71.40
82243;DHT22;71844;51.528;4.442;2024-03-08T04:17:38;3.00;71.30
82243;DHT22;71844;51.528;4.442;2024-03-08T04:20:06;2.90;71.50
82243;DHT22;71844;51.528;4.442;2024-03-08T04:22:41;2.90;71.50
82243;DHT22;71844;51.528;4.442;2024-03-08T04:25:11;2.90;71.40
82243;DHT22;71844;51.528;4.442;2024-03-08T04:27:38;2.90;71.50
82243;DHT22;71844;51.528;4.442;2024-03-08T04:30:05;2.90;71.40
82243;DHT22;71844;51.528;4.442;2024-03-08T04:32:35;2.80;71.50
82243;DHT22;71844;51.528;4.442;2024-03-08T04:35:02;2.80;71.50
82243;DHT22;71844;51.528;4.442;2024-03-08T04:37:30;2.80;71.50
82243;DHT22;71844;51.528;4.442;2024-03-08T04:39:58;2.80;71.50
82243;DHT22;71844;51.528;4.442;2024-03-08T04:42:25;2.80;71.50
82243;DHT22;71844;51.528;4.442;2024-03-08T04:44:53;2.70;71.50
82243;DHT22;71844;51.528;4.442;2024-03-08T04:47:20;2.80;71.70
82243;DHT22;71844;51.528;4.442;2024-03-08T04:49:47;2.70;71.50
82243;DHT22;71844;51.528;4.442;2024-03-08T04:52:14;2.70;71.60
82243;DHT22;71844;51.528;4.442;2024-03-08T04:54:42;2.70;71.50
82243;DHT22;71844;51.528;4.442;2024-03-08T04:57:09;2.70;71.50
82243;DHT22;71844;51.528;4.442;2024-03-08T04:59:37;2.70;71.60
82243;DHT22;71844;51.528;4.442;2024-03-08T05:02:04;2.60;71.70
82243;DHT22;71844;51.528;4.442;2024-03-08T05:04:31;2.70;71.70
82243;DHT22;71844;51.528;4.442;2024-03-08T05:06:58;2.60;71.60
82243;DHT22;71844;51.528;4.442;2024-03-08T05:09:27;2.60;71.60
82243;DHT22;71844;51.528;4.442;2024-03-08T05:11:55;2.60;71.70
82243;DHT22;71844;51.528;4.442;2024-03-08T05:14:23;2.60;71.70
82243;DHT22;71844;51.528;4.442;2024-03-08T05:16:51;2.60;71.80
82243;DHT22;71844;51.528;4.442;2024-03-08T05:19:19;2.60;71.70
82243;DHT22;71844;51.528;4.442;2024-03-08T05:21:47;2.60;71.80
82243;DHT22;71844;51.528;4.442;2024-03-08T05:24:15;2.50;71.90
82243;DHT22;71844;51.528;4.442;2024-03-08T05:26:44;2.50;71.80
82243;DHT22;71844;51.528;4.442;2024-03-08T05:29:12;2.50;71.80
82243;DHT22;71844;51.528;4.442;2024-03-08T05:31:48;2.50;71.70
82243;DHT22;71844;51.528;4.442;2024-03-08T05:34:16;2.50;71.80
82243;DHT22;71844;51.528;4.442;2024-03-08T05:36:43;2.50;71.90
82243;DHT22;71844;51.528;4.442;2024-03-08T05:39:13;2.50;71.80
82243;DHT22;71844;51.528;4.442;2024-03-08T05:41:41;2.40;71.80
82243;DHT22;71844;51.528;4.442;2024-03-08T05:44:10;2.40;71.80
82243;DHT22;71844;51.528;4.442;2024-03-08T05:46:37;2.40;71.80
82243;DHT22;71844;51.528;4.442;2024-03-08T05:49:05;2.40;71.70
82243;DHT22;71844;51.528;4.442;2024-03-08T05:51:33;2.40;71.70
82243;DHT22;71844;51.528;4.442;2024-03-08T05:54:05;2.40;71.70
82243;DHT22;71844;51.528;4.442;2024-03-08T05:56:44;2.40;71.90
82243;DHT22;71844;51.528;4.442;2024-03-08T05:59:12;2.30;71.80
82243;DHT22;71844;51.528;4.442;2024-03-08T06:01:40;2.30;71.80
82243;DHT22;71844;51.528;4.442;2024-03-08T06:04:09;2.30;72.00
82243;DHT22;71844;51.528;4.442;2024-03-08T06:06:38;2.30;71.90
82243;DHT22;71844;51.528;4.442;2024-03-08T06:09:07;2.30;71.90
82243;DHT22;71844;51.528;4.442;2024-03-08T06:11:36;2.30;71.90
82243;DHT22;71844;51.528;4.442;2024-03-08T06:14:04;2.30;71.90
82243;DHT22;71844;51.528;4.442;2024-03-08T06:16:33;2.30;72.10
82243;DHT22;71844;51.528;4.442;2024-03-08T06:19:00;2.30;72.10
82243;DHT22;71844;51.528;4.442;2024-03-08T06:21:29;2.30;72.00
82243;DHT22;71844;51.528;4.442;2024-03-08T06:23:56;2.20;72.10
82243;DHT22;71844;51.528;4.442;2024-03-08T06:26:27;2.30;72.00
82243;DHT22;71844;51.528;4.442;2024-03-08T06:28:58;2.30;72.20
82243;DHT22;71844;51.528;4.442;2024-03-08T06:31:25;2.30;72.10
82243;DHT22;71844;51.528;4.442;2024-03-08T06:33:52;2.30;72.10
82243;DHT22;71844;51.528;4.442;2024-03-08T06:36:22;2.30;72.00
82243;DHT22;71844;51.528;4.442;2024-03-08T06:38:50;2.30;71.90
82243;DHT22;71844;51.528;4.442;2024-03-08T06:41:17;2.30;72.00
82243;DHT22;71844;51.528;4.442;2024-03-08T06:43:45;2.30;71.90
82243;DHT22;71844;51.528;4.442;2024-03-08T06:46:15;2.30;71.80
82243;DHT22;71844;51.528;4.442;2024-03-08T06:48:42;2.30;71.80
82243;DHT22;71844;51.528;4.442;2024-03-08T06:51:09;2.40;71.80
82243;DHT22;71844;51.528;4.442;2024-03-08T06:53:37;2.40;71.80
82243;DHT22;71844;51.528;4.442;2024-03-08T06:56:05;2.40;71.80
82243;DHT22;71844;51.528;4.442;2024-03-08T06:58:34;2.40;71.70
82243;DHT22;71844;51.528;4.442;2024-03-08T07:01:01;2.40;71.70
82243;DHT22;71844;51.528;4.442;2024-03-08T07:03:31;2.50;71.60
82243;DHT22;71844;51.528;4.442;2024-03-08T07:05:59;2.50;71.60
82243;DHT22;71844;51.528;4.442;2024-03-08T07:08:29;2.50;71.60
82243;DHT22;71844;51.528;4.442;2024-03-08T07:10:56;2.50;71.50
82243;DHT22;71844;51.528;4.442;2024-03-08T07:13:26;2.60;71.60
82243;DHT22;71844;51.528;4.442;2024-03-08T07:15:55;2.60;71.40
82243;DHT22;71844;51.528;4.442;2024-03-08T07:18:22;2.60;71.50
82243;DHT22;71844;51.528;4.442;2024-03-08T07:20:49;2.70;71.50
82243;DHT22;71844;51.528;4.442;2024-03-08T07:23:16;2.80;71.40
82243;DHT22;71844;51.528;4.442;2024-03-08T07:26:01;2.80;71.30
82243;DHT22;71844;51.528;4.442;2024-03-08T07:28:28;2.90;71.30
82243;DHT22;71844;51.528;4.442;2024-03-08T07:31:00;3.00;71.30
82243;DHT22;71844;51.528;4.442;2024-03-08T07:33:48;3.10;71.00
82243;DHT22;71844;51.528;4.442;2024-03-08T07:36:17;3.20;70.80
82243;DHT22;71844;51.528;4.442;2024-03-08T07:38:44;3.20;70.60
82243;DHT22;71844;51.528;4.442;2024-03-08T07:41:15;3.20;70.40
82243;DHT22;71844;51.528;4.442;2024-03-08T07:43:42;3.30;70.30
82243;DHT22;71844;51.528;4.442;2024-03-08T07:46:12;3.30;70.30
82243;DHT22;71844;51.528;4.442;2024-03-08T07:48:40;3.30;69.90
82243;DHT22;71844;51.528;4.442;2024-03-08T07:51:07;3.30;70.00
82243;DHT22;71844;51.528;4.442;2024-03-08T07:53:36;3.30;69.70
82243;DHT22;71844;51.528;4.442;2024-03-08T07:56:05;3.40;69.80
82243;DHT22;71844;51.528;4.442;2024-03-08T07:58:32;3.40;69.70
82243;DHT22;71844;51.528;4.442;2024-03-08T08:01:01;3.50;69.60
82243;DHT22;71844;51.528;4.442;2024-03-08T08:03:29;3.60;69.40
82243;DHT22;71844;51.528;4.442;2024-03-08T08:05:55;3.60;69.10
82243;DHT22;71844;51.528;4.442;2024-03-08T08:08:22;3.70;69.00
82243;DHT22;71844;51.528;4.442;2024-03-08T08:10:49;3.70;68.90
82243;DHT22;71844;51.528;4.442;2024-03-08T08:13:16;3.80;69.00
82243;DHT22;71844;51.528;4.442;2024-03-08T08:15:44;3.90;68.90
82243;DHT22;71844;51.528;4.442;2024-03-08T08:18:12;3.90;68.90
82243;DHT22;71844;51.528;4.442;2024-03-08T08:20:40;4.10;69.20
82243;DHT22;71844;51.528;4.442;2024-03-08T08:23:07;4.30;69.40
82243;DHT22;71844;51.528;4.442;2024-03-08T08:25:35;4.50;69.10
82243;DHT22;71844;51.528;4.442;2024-03-08T08:28:02;4.80;69.10
82243;DHT22;71844;51.528;4.442;2024-03-08T08:30:31;5.20;69.40
82243;DHT22;71844;51.528;4.442;2024-03-08T08:33:00;5.50;68.60
82243;DHT22;71844;51.528;4.442;2024-03-08T08:35:27;5.90;68.20
82243;DHT22;71844;51.528;4.442;2024-03-08T08:37:55;6.10;67.60
82243;DHT22;71844;51.528;4.442;2024-03-08T08:40:22;6.40;67.40
82243;DHT22;71844;51.528;4.442;2024-03-08T08:42:51;6.70;66.50
82243;DHT22;71844;51.528;4.442;2024-03-08T08:45:24;6.90;66.30
82243;DHT22;71844;51.528;4.442;2024-03-08T08:47:52;7.20;65.80
82243;DHT22;71844;51.528;4.442;2024-03-08T08:50:21;7.50;64.90
82243;DHT22;71844;51.528;4.442;2024-03-08T08:52:52;7.80;64.40
82243;DHT22;71844;51.528;4.442;2024-03-08T08:55:20;8.10;63.80
82243;DHT22;71844;51.528;4.442;2024-03-08T08:57:48;8.40;63.10
82243;DHT22;71844;51.528;4.442;2024-03-08T09:00:16;8.60;62.60
82243;DHT22;71844;51.528;4.442;2024-03-08T09:02:43;8.70;60.90
82243;DHT22;71844;51.528;4.442;2024-03-08T09:05:10;8.90;60.30
82243;DHT22;71844;51.528;4.442;2024-03-08T09:07:44;9.00;60.00
82243;DHT22;71844;51.528;4.442;2024-03-08T09:10:13;9.10;59.20
82243;DHT22;71844;51.528;4.442;2024-03-08T09:12:44;9.50;59.40
82243;DHT22;71844;51.528;4.442;2024-03-08T09:15:11;9.90;58.00
82243;DHT22;71844;51.528;4.442;2024-03-08T09:17:39;10.00;56.90
82243;DHT22;71844;51.528;4.442;2024-03-08T09:20:10;10.20;57.00
82243;DHT22;71844;51.528;4.442;2024-03-08T09:22:37;10.50;55.70
82243;DHT22;71844;51.528;4.442;2024-03-08T09:25:05;10.60;55.20
82243;DHT22;71844;51.528;4.442;2024-03-08T09:27:32;10.70;54.20
82243;DHT22;71844;51.528;4.442;2024-03-08T09:30:05;10.90;54.40
82243;DHT22;71844;51.528;4.442;2024-03-08T09:32:34;11.10;53.50
82243;DHT22;71844;51.528;4.442;2024-03-08T09:35:01;11.30;53.20
82243;DHT22;71844;51.528;4.442;2024-03-08T09:37:28;11.50;52.70
82243;DHT22;71844;51.528;4.442;2024-03-08T09:39:55;11.70;51.70
82243;DHT22;71844;51.528;4.442;2024-03-08T09:42:22;11.80;51.20
82243;DHT22;71844;51.528;4.442;2024-03-08T09:44:49;11.90;50.40
82243;DHT22;71844;51.528;4.442;2024-03-08T09:47:18;11.90;49.90
82243;DHT22;71844;51.528;4.442;2024-03-08T09:49:45;12.00;49.20
82243;DHT22;71844;51.528;4.442;2024-03-08T09:52:13;12.10;48.90
82243;DHT22;71844;51.528;4.442;2024-03-08T09:54:40;12.30;49.00
82243;DHT22;71844;51.528;4.442;2024-03-08T09:57:11;12.50;47.80
82243;DHT22;71844;51.528;4.442;2024-03-08T09:59:38;12.40;46.50
82243;DHT22;71844;51.528;4.442;2024-03-08T10:48:49;14.20;41.00
82243;DHT22;71844;51.528;4.442;2024-03-08T10:51:16;14.50;41.40
82243;DHT22;71844;51.528;4.442;2024-03-08T10:53:52;14.80;40.20
82243;DHT22;71844;51.528;4.442;2024-03-08T10:56:19;14.50;39.30
82243;DHT22;71844;51.528;4.442;2024-03-08T10:58:46;14.50;40.10
82243;DHT22;71844;51.528;4.442;2024-03-08T11:01:14;14.50;39.70
82243;DHT22;71844;51.528;4.442;2024-03-08T11:06:42;14.60;40.30
82243;DHT22;71844;51.528;4.442;2024-03-08T11:09:28;15.00;39.90
82243;DHT22;71844;51.528;4.442;2024-03-08T11:12:18;15.40;38.20
82243;DHT22;71844;51.528;4.442;2024-03-08T11:14:48;15.60;38.50
82243;DHT22;71844;51.528;4.442;2024-03-08T11:17:44;15.80;38.90
82243;DHT22;71844;51.528;4.442;2024-03-08T11:20:13;15.90;37.60
82243;DHT22;71844;51.528;4.442;2024-03-08T11:23:04;16.00;38.00
82243;DHT22;71844;51.528;4.442;2024-03-08T11:25:37;16.00;37.20
82243;DHT22;71844;51.528;4.442;2024-03-08T11:28:20;16.00;37.70
82243;DHT22;71844;51.528;4.442;2024-03-08T11:33:40;16.20;37.30
82243;DHT22;71844;51.528;4.442;2024-03-08T11:36:11;16.30;37.80
82243;DHT22;71844;51.528;4.442;2024-03-08T11:38:40;16.60;37.40
82243;DHT22;71844;51.528;4.442;2024-03-08T11:41:07;16.60;36.60
82243;DHT22;71844;51.528;4.442;2024-03-08T11:43:35;16.80;37.20
82243;DHT22;71844;51.528;4.442;2024-03-08T11:46:08;16.90;36.50
82243;DHT22;71844;51.528;4.442;2024-03-08T11:48:35;16.80;36.40
82243;DHT22;71844;51.528;4.442;2024-03-08T11:51:03;16.80;36.90
82243;DHT22;71844;51.528;4.442;2024-03-08T11:53:31;17.10;36.60
82243;DHT22;71844;51.528;4.442;2024-03-08T11:56:12;17.20;36.70
82243;DHT22;71844;51.528;4.442;2024-03-08T11:58:40;17.50;35.30
82243;DHT22;71844;51.528;4.442;2024-03-08T12:01:09;17.50;36.50
82243;DHT22;71844;51.528;4.442;2024-03-08T12:03:40;17.70;35.80
82243;DHT22;71844;51.528;4.442;2024-03-08T12:06:10;17.60;35.80
82243;DHT22;71844;51.528;4.442;2024-03-08T12:08:37;17.40;35.80
82243;DHT22;71844;51.528;4.442;2024-03-08T12:11:05;17.40;36.00
82243;DHT22;71844;51.528;4.442;2024-03-08T12:13:33;17.50;35.70
82243;DHT22;71844;51.528;4.442;2024-03-08T12:16:04;17.50;35.80
82243;DHT22;71844;51.528;4.442;2024-03-08T12:18:36;17.60;35.80
82243;DHT22;71844;51.528;4.442;2024-03-08T12:21:12;17.90;35.60
82243;DHT22;71844;51.528;4.442;2024-03-08T12:23:41;18.20;35.40
82243;DHT22;71844;51.528;4.442;2024-03-08T12:26:24;18.60;35.00
82243;DHT22;71844;51.528;4.442;2024-03-08T12:28:53;18.80;33.90
82243;DHT22;71844;51.528;4.442;2024-03-08T12:31:21;18.70;34.30
82243;DHT22;71844;51.528;4.442;2024-03-08T12:33:52;18.70;34.10
82243;DHT22;71844;51.528;4.442;2024-03-08T12:36:23;18.80;34.10
82243;DHT22;71844;51.528;4.442;2024-03-08T12:38:50;18.90;34.20
82243;DHT22;71844;51.528;4.442;2024-03-08T12:41:18;19.30;33.70
82243;DHT22;71844;51.528;4.442;2024-03-08T12:43:47;19.40;33.20
82243;DHT22;71844;51.528;4.442;2024-03-08T12:46:19;19.30;33.00
82243;DHT22;71844;51.528;4.442;2024-03-08T12:48:49;19.10;33.10
82243;DHT22;71844;51.528;4.442;2024-03-08T12:51:21;19.10;33.30
82243;DHT22;71844;51.528;4.442;2024-03-08T12:53:48;19.00;33.30
82243;DHT22;71844;51.528;4.442;2024-03-08T12:56:29;19.00;33.50
82243;DHT22;71844;51.528;4.442;2024-03-08T12:58:56;18.90;33.90
82243;DHT22;71844;51.528;4.442;2024-03-08T13:01:23;19.20;33.80
82243;DHT22;71844;51.528;4.442;2024-03-08T13:03:51;19.60;33.10
82243;DHT22;71844;51.528;4.442;2024-03-08T13:06:18;19.60;32.70
82243;DHT22;71844;51.528;4.442;2024-03-08T13:08:46;19.40;32.90
82243;DHT22;71844;51.528;4.442;2024-03-08T13:11:14;19.40;32.70
82243;DHT22;71844;51.528;4.442;2024-03-08T13:13:41;19.10;32.40
82243;DHT22;71844;51.528;4.442;2024-03-08T13:16:09;18.60;32.60
82243;DHT22;71844;51.528;4.442;2024-03-08T13:18:36;18.40;33.20
82243;DHT22;71844;51.528;4.442;2024-03-08T13:21:04;18.60;33.30
82243;DHT22;71844;51.528;4.442;2024-03-08T13:23:38;18.90;33.20
82243;DHT22;71844;51.528;4.442;2024-03-08T13:26:08;19.10;33.10
82243;DHT22;71844;51.528;4.442;2024-03-08T13:28:35;19.20;32.70
82243;DHT22;71844;51.528;4.442;2024-03-08T13:31:06;18.90;32.80
82243;DHT22;71844;51.528;4.442;2024-03-08T13:33:33;18.80;32.80
82243;DHT22;71844;51.528;4.442;2024-03-08T13:36:08;18.70;32.80
82243;DHT22;71844;51.528;4.442;2024-03-08T13:38:47;18.60;33.10
82243;DHT22;71844;51.528;4.442;2024-03-08T13:41:15;18.50;32.70
82243;DHT22;71844;51.528;4.442;2024-03-08T13:43:46;18.60;33.00
82243;DHT22;71844;51.528;4.442;2024-03-08T13:46:13;18.70;33.00
82243;DHT22;71844;51.528;4.442;2024-03-08T13:48:40;19.00;33.10
82243;DHT22;71844;51.528;4.442;2024-03-08T13:51:08;19.20;33.00
82243;DHT22;71844;51.528;4.442;2024-03-08T13:53:41;19.30;32.90
82243;DHT22;71844;51.528;4.442;2024-03-08T13:56:09;19.30;33.10
82243;DHT22;71844;51.528;4.442;2024-03-08T13:58:37;19.40;32.80
82243;DHT22;71844;51.528;4.442;2024-03-08T14:01:07;19.20;33.00
82243;DHT22;71844;51.528;4.442;2024-03-08T14:03:39;19.20;32.70
82243;DHT22;71844;51.528;4.442;2024-03-08T14:06:09;19.00;32.80
82243;DHT22;71844;51.528;4.442;2024-03-08T14:08:36;19.00;32.90
82243;DHT22;71844;51.528;4.442;2024-03-08T14:11:06;19.00;33.00
82243;DHT22;71844;51.528;4.442;2024-03-08T14:13:44;18.90;32.80
82243;DHT22;71844;51.528;4.442;2024-03-08T14:16:13;18.70;33.30
82243;DHT22;71844;51.528;4.442;2024-03-08T14:18:40;18.70;33.50
82243;DHT22;71844;51.528;4.442;2024-03-08T14:21:07;18.90;33.40
82243;DHT22;71844;51.528;4.442;2024-03-08T14:23:40;18.80;33.00
82243;DHT22;71844;51.528;4.442;2024-03-08T14:26:07;18.80;33.40
82243;DHT22;71844;51.528;4.442;2024-03-08T14:28:35;19.00;33.30
82243;DHT22;71844;51.528;4.442;2024-03-08T14:31:02;19.00;33.10
82243;DHT22;71844;51.528;4.442;2024-03-08T14:33:33;19.00;33.00
82243;DHT22;71844;51.528;4.442;2024-03-08T14:36:00;18.90;33.10
82243;DHT22;71844;51.528;4.442;2024-03-08T14:38:28;18.80;33.20
82243;DHT22;71844;51.528;4.442;2024-03-08T14:40:55;18.70;33.30
82243;DHT22;71844;51.528;4.442;2024-03-08T14:43:23;18.60;33.30
82243;DHT22;71844;51.528;4.442;2024-03-08T14:45:51;18.60;33.80
82243;DHT22;71844;51.528;4.442;2024-03-08T14:48:19;18.50;33.70
82243;DHT22;71844;51.528;4.442;2024-03-08T16:05:05;13.00;39.70
82243;DHT22;71844;51.528;4.442;2024-03-08T16:07:34;13.00;39.50
82243;DHT22;71844;51.528;4.442;2024-03-08T16:10:00;13.10;39.80
82243;DHT22;71844;51.528;4.442;2024-03-08T16:12:27;13.00;39.70
82243;DHT22;71844;51.528;4.442;2024-03-08T16:14:55;13.00;39.90
82243;DHT22;71844;51.528;4.442;2024-03-08T16:17:22;13.00;40.00
82243;DHT22;71844;51.528;4.442;2024-03-08T16:19:50;12.90;40.20
82243;DHT22;71844;51.528;4.442;2024-03-08T16:22:17;12.80;40.30
82243;DHT22;71844;51.528;4.442;2024-03-08T16:24:44;12.70;40.50
82243;DHT22;71844;51.528;4.442;2024-03-08T16:27:11;12.70;40.70
82243;DHT22;71844;51.528;4.442;2024-03-08T16:29:38;12.60;40.90
82243;DHT22;71844;51.528;4.442;2024-03-08T16:32:05;12.60;40.90
82243;DHT22;71844;51.528;4.442;2024-03-08T16:34:32;12.60;41.10
82243;DHT22;71844;51.528;4.442;2024-03-08T16:37:01;12.60;41.30
82243;DHT22;71844;51.528;4.442;2024-03-08T16:39:29;12.60;41.50
82243;DHT22;71844;51.528;4.442;2024-03-08T16:41:55;12.60;41.70
82243;DHT22;71844;51.528;4.442;2024-03-08T16:44:23;12.50;41.50
82243;DHT22;71844;51.528;4.442;2024-03-08T16:46:51;12.40;41.80
82243;DHT22;71844;51.528;4.442;2024-03-08T16:49:18;12.30;41.90
82243;DHT22;71844;51.528;4.442;2024-03-08T16:51:45;12.30;42.00
82243;DHT22;71844;51.528;4.442;2024-03-08T16:54:12;12.20;42.20
82243;DHT22;71844;51.528;4.442;2024-03-08T16:56:39;12.20;42.20
82243;DHT22;71844;51.528;4.442;2024-03-08T16:59:09;12.10;42.40
82243;DHT22;71844;51.528;4.442;2024-03-08T17:01:37;12.10;42.30
82243;DHT22;71844;51.528;4.442;2024-03-08T17:04:05;12.00;42.30
82243;DHT22;71844;51.528;4.442;2024-03-08T17:06:33;11.90;42.60
82243;DHT22;71844;51.528;4.442;2024-03-08T17:09:00;11.90;42.70
82243;DHT22;71844;51.528;4.442;2024-03-08T17:11:26;11.80;42.90
82243;DHT22;71844;51.528;4.442;2024-03-08T17:13:56;11.80;43.20
82243;DHT22;71844;51.528;4.442;2024-03-08T17:16:23;11.70;43.20
82243;DHT22;71844;51.528;4.442;2024-03-08T17:18:52;11.70;43.10
82243;DHT22;71844;51.528;4.442;2024-03-08T17:21:19;11.60;43.50
82243;DHT22;71844;51.528;4.442;2024-03-08T17:23:46;11.60;43.70
82243;DHT22;71844;51.528;4.442;2024-03-08T17:26:13;11.50;43.90
82243;DHT22;71844;51.528;4.442;2024-03-08T17:28:40;11.40;44.10
82243;DHT22;71844;51.528;4.442;2024-03-08T17:31:09;11.40;44.20
82243;DHT22;71844;51.528;4.442;2024-03-08T17:33:38;11.30;44.30
82243;DHT22;71844;51.528;4.442;2024-03-08T17:36:09;11.20;44.60
82243;DHT22;71844;51.528;4.442;2024-03-08T17:38:38;11.20;44.60
82243;DHT22;71844;51.528;4.442;2024-03-08T17:41:15;11.10;44.80
82243;DHT22;71844;51.528;4.442;2024-03-08T17:43:48;11.10;45.10
82243;DHT22;71844;51.528;4.442;2024-03-08T17:46:17;11.00;45.20
82243;DHT22;71844;51.528;4.442;2024-03-08T17:48:46;11.00;45.50
82243;DHT22;71844;51.528;4.442;2024-03-08T17:51:13;10.90;45.30
82243;DHT22;71844;51.528;4.442;2024-03-08T17:53:40;10.90;45.60
82243;DHT22;71844;51.528;4.442;2024-03-08T17:56:07;10.80;45.70
82243;DHT22;71844;51.528;4.442;2024-03-08T17:58:34;10.70;46.00
82243;DHT22;71844;51.528;4.442;2024-03-08T18:01:02;10.60;45.90